Flight Track Log - Related Links

Times and Time Zones

All times are in EST time to prevent confusion due to time zone crossing. See the ELJ442 flight status page for this flight to view local times or setup timezone preferences in your user account.

Time Position Orientation Groundspeed Altitude Reporting Facility
EST Latitude Longitude Course Direction KTS MPH feet Rate Location/Type
Mon 09:31:29 PM 41.8308 -87.7675 27° Northeast 259 298 4,000  Level Chicago Center
Mon 09:32:31 PM 41.8169 -87.6672 100° East 270 311 4,700 1,951 Climbing Chicago Center
Mon 09:33:32 PM 41.8117 -87.5561 94° East 293 337 8,000 3,561 Climbing Chicago Center
Mon 09:34:34 PM 41.7997 -87.4331 97° East 328 377 12,000 3,871 Climbing Chicago Center
Mon 09:35:36 PM 41.7853 -87.2942 98° East 372 428 16,000 3,707 Climbing Chicago Center
Mon 09:36:37 PM 41.7636 -87.0922 98° East 455 524 19,600 2,439 Climbing Chicago Center
Mon 09:37:39 PM 41.7617 -86.8972 91° East 526 605 21,000 677 Climbing Chicago Center
Mon 09:38:41 PM 41.7661 -86.6947 88° East 542 624 21,000  Level Chicago Center
Mon 09:39:42 PM 41.7669 -86.5083 90° East 535 616 21,000  Level Chicago Center
Mon 09:40:44 PM 41.7425 -86.3200 100° East 522 601 21,000  Level Chicago Center
Mon 09:41:46 PM 41.6631 -86.1847 128° Southeast 469 540 21,000  Level Chicago Center
Mon 09:42:47 PM 41.5664 -86.0325 130° Southeast 451 519 21,000  Level Chicago Center
Mon 09:43:49 PM 41.4864 -85.9039 130° Southeast 454 522 21,000  Level Chicago Center
Mon 09:44:51 PM 41.4058 -85.7753 130° Southeast 458 527 21,000  Level Chicago Center
Mon 09:45:52 PM 41.3256 -85.6469 130° Southeast 457 526 21,000  Level Chicago Center
Mon 09:46:54 PM 41.2447 -85.5169 130° Southeast 461 531 21,000  Level Chicago Center
Mon 09:47:56 PM 41.1467 -85.3675 131° Southeast 453 521 21,000  Level Chicago Center
Mon 09:48:57 PM 41.0644 -85.2344 129° Southeast 465 535 21,000  Level Chicago Center
Mon 09:49:59 PM 40.9822 -85.1053 130° Southeast 465 535 21,000  Level Chicago Center
Mon 09:51:01 PM 40.8994 -84.9781 131° Southeast 460 529 21,000  Level Chicago Center
Mon 09:52:02 PM 40.8169 -84.8508 131° Southeast 459 528 21,000  Level Chicago Center
Mon 09:53:04 PM 40.7350 -84.7219 130° Southeast 459 528 21,000  Level Chicago Center
Mon 09:54:05 PM 40.6497 -84.5983 132° Southeast 459 528 21,000  Level Chicago Center
Mon 09:54:36 PM 40.5978 -84.5742 161° South 422 486 21,000  Level Indianapolis Center
Mon 09:55:35 PM 40.4769 -84.5533 173° South 351 404 21,000  Level Indianapolis Center
Mon 09:55:37 PM 40.4778 -84.5544 315° West 367 422 21,000  Level Indianapolis Center
Mon 09:56:18 PM 40.4081 -84.5461 175° South 356 410 21,000  Level Indianapolis Center
Mon 09:56:38 PM 40.3767 -84.5444 178° South 362 417 21,000 -295 Level Indianapolis Center
Mon 09:57:19 PM 40.3058 -84.5381 176° South 365 420 20,700 -677 Descending Indianapolis Center
Mon 09:57:40 PM 40.2778 -84.5344 174° South 361 415 20,300 -1,400 Descending Indianapolis Center
Mon 09:58:19 PM 40.2081 -84.5283 176° South 356 410 19,300 -1,475 Descending Indianapolis Center
Mon 09:58:41 PM 40.1781 -84.5247 175° South 360 414 18,800 -1,574 Descending Indianapolis Center
Mon 09:59:20 PM 40.0997 -84.5167 176° South 366 421 17,700 -1,279 Descending Indianapolis Center
Mon 09:59:42 PM 40.0775 -84.5144 176° South 364 419 17,500 -1,222 Descending Indianapolis Center
Mon 10:00:14 PM 40.0164 -84.5094 176° South 357 411 16,600 -1,475 Descending Indianapolis Center
Mon 10:00:43 PM 39.9800 -84.5044 174° South 358 412 16,000 -1,574 Descending Indianapolis Center
Mon 10:01:15 PM 39.9144 -84.4989 176° South 344 396 15,000 -1,355 Descending Indianapolis Center
Mon 10:01:45 PM 39.8839 -84.4956 175° South 353 406 14,600 -1,377 Descending Indianapolis Center
Mon 10:02:16 PM 39.8225 -84.4906 176° South 332 382 13,600 -1,475 Descending Indianapolis Center
Mon 10:02:46 PM 39.7908 -84.4864 174° South 343 395 13,100 -1,500 Descending Indianapolis Center
Mon 10:03:16 PM 39.7228 -84.4803 176° South 358 412 12,100 -1,770 Descending Indianapolis Center
Mon 10:03:47 PM 39.6756 -84.4750 175° South 346 398 11,300 -1,565 Descending Indianapolis Center
Mon 10:04:48 PM 39.5972 -84.4664 175° South 309 356 9,700 -1,918 Descending Indianapolis Center
Mon 10:05:49 PM 39.5292 -84.4517 171° South 265 305 7,400 -2,311 Descending Indianapolis Center
Mon 10:06:50 PM 39.4561 -84.4167 160° South 277 319 5,000 -2,098 Descending Indianapolis Center
Mon 10:07:52 PM 39.3869 -84.3836 160° South 273 314 3,100 -976 Descending Indianapolis Center
Mon 10:08:53 PM 39.3306 -84.3461 153° Southeast 253 291 3,000 -49 Descending Indianapolis Center
Mon 10:09:54 PM 39.2806 -84.3339 169° South 219 252 3,000  Level Indianapolis Center
Mon 10:10:55 PM 39.2311 -84.3528 196° South 200 230 3,000 -98 Level Indianapolis Center
Mon 10:11:56 PM 39.1794 -84.3781 201° Southwest 191 220 2,800 -197 Descending Indianapolis Center
Mon 10:14:00 PM 39.1000 -84.4167 180° South  Level FlightAware Approximate
Mon 10:21:00 PM 39.1033 -84.4186 180° South  Level Estimated
Mon 10:22:00 PM 39.1000 -84.4167 180° South  Level FlightAware Approximate

Login

Don't have an account? Register now (free) for customized features, flight alerts, and more!